Time;durP1;ratioP1;P1;durP2;ratioP2;P2;SDS_P1;SDS_P2;PMS_P1;PMS_P2;Temp;Humidity;BMP_temperature;BMP_pressure;BME280_temperature;BME280_humidity;BME280_pressure;Samples;Min_cycle;Max_cycle;Signal;HPM_P1;HPM_P2
2023/06/16 00:00:38;;;;;;;;;10.00;9.33;;;;;22.48;41.34;101393.59;4978517;28;45562;-69
2023/06/16 00:03:04;;;;;;;;;12.00;11.33;;;;;22.25;41.63;101363.44;4978095;28;46771;-69
2023/06/16 00:05:30;;;;;;;;;15.33;10.00;;;;;22.40;42.18;101398.19;4982255;28;45639;-69
2023/06/16 00:08:00;;;;;;;;;14.33;12.33;;;;;22.24;42.11;101385.91;4973557;28;45455;-69
2023/06/16 00:10:26;;;;;;;;;13.33;13.33;;;;;22.23;42.79;101401.16;4979521;28;45433;-69
2023/06/16 00:12:52;;;;;;;;;14.33;14.00;;;;;21.92;42.60;101359.38;4974484;28;46115;-69
2023/06/16 00:15:17;;;;;;;;;17.67;16.00;;;;;22.16;42.83;101406.63;4979798;28;45416;-69
2023/06/16 00:17:46;;;;;;;;;17.00;16.67;;;;;22.05;43.06;101393.31;4975807;28;45258;-69
2023/06/16 00:20:15;;;;;;;;;18.00;16.00;;;;;22.01;42.97;101392.44;4979908;28;45493;-68
2023/06/16 00:22:41;;;;;;;;;16.67;16.67;;;;;22.02;43.90;101396.94;4972647;28;46363;-69
2023/06/16 00:25:09;;;;;;;;;21.33;21.00;;;;;22.04;44.08;101400.50;4969421;28;45297;-68
2023/06/16 00:27:35;;;;;;;;;23.33;21.33;;;;;22.01;44.44;101396.94;4974000;28;45435;-68
2023/06/16 00:30:02;;;;;;;;;23.33;21.67;;;;;21.86;44.71;101382.78;4980006;28;45265;-68
2023/06/16 00:32:28;;;;;;;;;24.00;21.00;;;;;21.92;45.00;101389.88;4973794;28;45368;-68
2023/06/16 00:34:53;;;;;;;;;21.33;19.00;;;;;21.93;45.45;101404.22;4979534;28;56739;-68
2023/06/16 00:37:18;;;;;;;;;22.33;22.33;;;;;21.88;45.86;101398.91;4973499;28;45330;-69
2023/06/16 00:39:44;;;;;;;;;19.67;19.00;;;;;21.88;44.98;101399.81;4979434;28;51077;-68
2023/06/16 00:42:09;;;;;;;;;22.00;20.00;;;;;21.77;45.56;101385.59;4973318;28;45514;-69
2023/06/16 00:44:34;;;;;;;;;17.00;16.00;;;;;21.64;45.73;101375.88;4979916;28;45392;-68
2023/06/16 00:47:00;;;;;;;;;21.67;20.67;;;;;21.81;45.95;101408.84;4970882;28;45768;-68
2023/06/16 00:49:25;;;;;;;;;19.33;19.33;;;;;21.59;45.45;101375.03;4979366;28;45371;-68
2023/06/16 00:51:53;;;;;;;;;24.67;21.67;;;;;21.71;45.71;101395.56;4973056;28;47203;-68
2023/06/16 00:54:19;;;;;;;;;20.67;19.00;;;;;21.75;45.82;101413.44;4979480;28;45273;-69
2023/06/16 00:56:45;;;;;;;;;19.00;19.00;;;;;21.72;45.62;101411.66;4975045;28;45486;-68
2023/06/16 00:59:10;;;;;;;;;19.33;17.00;;;;;21.63;46.12;101396.53;4978532;28;45553;-69
2023/06/16 01:01:38;;;;;;;;;20.33;17.00;;;;;21.61;45.55;101395.63;4971096;28;46040;-69
2023/06/16 01:04:03;;;;;;;;;24.00;22.67;;;;;21.65;45.63;101408.16;4972769;28;45451;-69
2023/06/16 01:06:48;;;;;;;;;16.67;16.33;;;;;21.61;44.82;101402.81;4978098;28;45212;-69
2023/06/16 01:09:29;;;;;;;;;20.00;19.33;;;;;21.59;45.19;101400.16;4973162;28;45222;-69
2023/06/16 01:12:07;;;;;;;;;20.00;17.00;;;;;21.58;44.67;101405.56;4975541;28;45372;-69
2023/06/16 01:14:46;;;;;;;;;19.00;19.00;;;;;21.55;45.52;101409.16;4977062;28;45437;-68
2023/06/16 01:17:15;;;;;;;;;21.67;21.00;;;;;21.48;45.86;101395.78;4975373;28;45175;-68
2023/06/16 01:19:46;;;;;;;;;19.67;19.67;;;;;21.48;46.19;101403.88;4978157;28;45363;-69
2023/06/16 01:22:53;;;;;;;;;20.67;18.33;;;;;21.42;44.93;101399.44;4971666;28;47994;-68
2023/06/16 01:25:22;;;;;;;;;21.33;19.00;;;;;21.30;46.50;101388.78;4966501;28;45644;-69
2023/06/16 01:27:52;;;;;;;;;20.00;18.33;;;;;21.35;46.64;101406.66;4974096;28;45390;-69
2023/06/16 01:30:22;;;;;;;;;18.00;17.00;;;;;21.30;46.45;101391.47;4978596;28;45237;-68
2023/06/16 01:32:52;;;;;;;;;22.33;19.00;;;;;21.27;46.21;101396.91;4973548;28;46107;-69
2023/06/16 01:35:20;;;;;;;;;16.33;16.33;;;;;21.22;47.05;101392.44;4979337;28;45376;-68
2023/06/16 01:37:47;;;;;;;;;19.33;19.33;;;;;21.17;46.69;101385.31;4967862;28;45370;-69
2023/06/16 01:40:13;;;;;;;;;20.00;17.33;;;;;21.17;47.24;101396.09;4970981;28;45349;-69
2023/06/16 01:42:39;;;;;;;;;17.33;17.33;;;;;21.12;47.33;101388.09;4969145;28;47014;-68
2023/06/16 01:45:06;;;;;;;;;16.67;15.33;;;;;21.09;47.34;101396.19;4979352;28;45298;-69
2023/06/16 01:47:34;;;;;;;;;19.67;19.33;;;;;20.98;47.18;101385.53;4974856;28;45361;-69
2023/06/16 01:50:00;;;;;;;;;19.67;18.67;;;;;20.90;48.23;101379.31;4975857;28;45389;-69
2023/06/16 01:52:25;;;;;;;;;16.67;15.33;;;;;20.93;48.47;101395.41;4977523;28;45359;-69
2023/06/16 01:54:50;;;;;;;;;21.67;20.00;;;;;20.87;48.51;101392.78;4976721;28;48336;-69
2023/06/16 01:57:16;;;;;;;;;21.33;21.00;;;;;20.82;48.40;101394.63;4975839;28;45411;-69
2023/06/16 01:59:41;;;;;;;;;27.33;24.00;;;;;20.85;47.97;101407.16;4974869;28;45579;-69
2023/06/16 02:02:15;;;;;;;;;25.67;24.00;;;;;20.76;47.16;101394.69;4976706;28;46107;-69
2023/06/16 02:04:44;;;;;;;;;23.67;22.67;;;;;20.65;48.81;101384.00;4984343;28;45519;-69
2023/06/16 02:07:14;;;;;;;;;22.00;21.67;;;;;20.77;48.85;101408.09;4977504;28;45210;-69
2023/06/16 02:09:42;;;;;;;;;21.00;19.00;;;;;20.71;48.19;101402.75;4978999;28;45297;-69
2023/06/16 02:12:11;;;;;;;;;19.67;17.67;;;;;20.66;48.92;101401.00;4978009;28;45363;-69
2023/06/16 02:14:38;;;;;;;;;20.00;20.00;;;;;20.68;49.18;101404.59;4980229;28;45380;-69
2023/06/16 02:17:05;;;;;;;;;19.67;18.67;;;;;20.62;49.08;101399.28;4980051;28;45468;-69
2023/06/16 02:19:32;;;;;;;;;20.00;18.00;;;;;20.62;48.00;101407.34;4981350;28;45507;-70
2023/06/16 02:21:57;;;;;;;;;14.67;14.67;;;;;20.37;48.52;101375.22;4976850;28;45307;-68
2023/06/16 02:24:23;;;;;;;;;18.00;18.00;;;;;20.47;49.15;101398.44;4978390;28;45373;-68
2023/06/16 02:26:49;;;;;;;;;18.67;18.67;;;;;20.44;48.42;101397.56;4978826;28;45258;-68
2023/06/16 02:29:14;;;;;;;;;19.33;19.00;;;;;20.47;48.97;101411.88;4978231;28;45542;-68
2023/06/16 02:31:39;;;;;;;;;24.67;22.33;;;;;20.43;49.29;101410.09;4976398;28;46445;-68
2023/06/16 02:34:05;;;;;;;;;23.33;21.33;;;;;20.41;49.53;101411.00;4981560;28;45252;-68
2023/06/16 02:36:33;;;;;;;;;20.00;20.00;;;;;20.38;49.69;101406.53;4978890;28;46615;-68
2023/06/16 02:38:58;;;;;;;;;21.67;19.67;;;;;20.33;49.87;101403.00;4976822;28;45250;-68
2023/06/16 02:41:23;;;;;;;;;20.67;18.67;;;;;20.33;50.45;101397.63;4976826;28;49638;-67
2023/06/16 02:43:48;;;;;;;;;23.33;20.33;;;;;20.27;50.59;101403.91;4972975;28;45412;-67
2023/06/16 02:46:14;;;;;;;;;23.33;20.00;;;;;20.22;50.56;101395.03;4976317;28;53165;-67
2023/06/16 02:48:39;;;;;;;;;21.00;20.33;;;;;20.21;50.27;101392.34;4970106;28;47623;-67
2023/06/16 02:51:05;;;;;;;;;21.67;20.00;;;;;20.10;50.40;101385.22;4979389;28;45948;-68
2023/06/16 02:53:30;;;;;;;;;24.67;21.00;;;;;20.13;51.05;101400.44;4978592;28;45423;-68
2023/06/16 02:55:56;;;;;;;;;24.67;21.33;;;;;20.09;49.83;101404.03;4979222;28;45422;-68
2023/06/16 02:58:22;;;;;;;;;24.33;24.33;;;;;20.01;50.47;101395.13;4971594;28;45329;-68
2023/06/16 03:00:47;;;;;;;;;26.00;21.67;;;;;20.00;51.50;101391.56;4979720;28;46219;-68
2023/06/16 03:03:13;;;;;;;;;24.67;23.67;;;;;19.99;50.94;101404.97;4972761;28;45450;-68
2023/06/16 03:05:38;;;;;;;;;26.00;23.33;;;;;19.87;50.98;101390.72;4981801;28;45409;-68
2023/06/16 03:08:04;;;;;;;;;21.00;18.67;;;;;19.93;50.62;101403.22;4973287;28;45415;-68
2023/06/16 03:10:30;;;;;;;;;24.67;19.33;;;;;19.83;51.23;101386.28;4981002;28;45438;-68
2023/06/16 03:12:55;;;;;;;;;20.33;19.00;;;;;19.88;51.04;101397.88;4975496;28;45376;-69
2023/06/16 03:15:23;;;;;;;;;25.00;25.00;;;;;19.85;51.07;101395.19;4980964;28;45222;-68
2023/06/16 03:17:48;;;;;;;;;26.00;24.00;;;;;19.84;51.38;101400.59;4977946;28;45266;-68
2023/06/16 03:20:15;;;;;;;;;25.67;25.67;;;;;19.80;51.01;101401.47;4980830;28;45962;-68
2023/06/16 03:22:40;;;;;;;;;26.67;26.00;;;;;19.83;51.54;101404.19;4970105;28;45372;-68
2023/06/16 03:25:06;;;;;;;;;26.33;25.33;;;;;19.71;51.73;101390.78;4979645;28;45387;-68
2023/06/16 03:27:32;;;;;;;;;26.67;21.67;;;;;19.72;51.05;101397.94;4967430;28;45583;-68
2023/06/16 03:29:57;;;;;;;;;23.00;20.67;;;;;19.70;51.73;101406.00;4968173;28;46018;-68
2023/06/16 03:32:23;;;;;;;;;21.00;19.33;;;;;19.71;49.87;101412.25;4969145;28;45341;-68
2023/06/16 03:34:48;;;;;;;;;20.33;17.67;;;;;19.59;51.50;101394.38;4968771;28;45302;-68
2023/06/16 03:37:15;;;;;;;;;23.67;21.67;;;;;19.64;51.54;101412.25;4973518;28;45294;-68
2023/06/16 03:39:41;;;;;;;;;22.67;19.67;;;;;19.64;51.69;101416.72;4970487;28;45278;-68
2023/06/16 03:42:07;;;;;;;;;21.00;21.00;;;;;19.61;51.42;101414.06;4972806;28;45302;-68
2023/06/16 03:44:32;;;;;;;;;24.00;20.33;;;;;19.56;51.72;101414.06;4969906;28;45440;-68
2023/06/16 03:46:57;;;;;;;;;19.67;19.00;;;;;19.52;52.21;101406.00;4974916;28;47742;-68
2023/06/16 03:49:23;;;;;;;;;18.00;17.33;;;;;19.53;51.60;101413.19;4972010;28;45306;-68
2023/06/16 03:51:48;;;;;;;;;19.67;17.67;;;;;19.45;50.83;101410.50;4976622;28;45519;-68
2023/06/16 03:54:16;;;;;;;;;18.00;18.00;;;;;19.49;52.16;101430.16;4979278;28;45435;-68
2023/06/16 03:56:41;;;;;;;;;20.67;16.00;;;;;19.30;51.99;101389.13;4973904;28;45427;-68
2023/06/16 03:59:08;;;;;;;;;18.67;18.67;;;;;19.45;51.99;101416.75;4975115;28;45266;-68
2023/06/16 04:01:36;;;;;;;;;18.67;17.00;;;;;19.42;52.46;101415.88;4975388;28;45379;-68
2023/06/16 04:04:01;;;;;;;;;19.00;18.67;;;;;19.42;52.12;101418.56;4975781;28;45349;-68
2023/06/16 04:06:26;;;;;;;;;16.33;16.00;;;;;19.38;52.61;101412.31;4976283;28;45206;-68
2023/06/16 04:08:52;;;;;;;;;15.67;15.00;;;;;19.27;52.75;101398.06;4978305;28;46578;-68
2023/06/16 04:11:17;;;;;;;;;20.00;19.00;;;;;19.29;52.32;101409.63;4976191;28;45402;-68
2023/06/16 04:13:43;;;;;;;;;17.67;17.00;;;;;19.29;52.45;101422.16;4978571;28;45418;-68
2023/06/16 04:16:08;;;;;;;;;18.67;18.67;;;;;19.30;51.62;101421.28;4978162;28;45582;-68
2023/06/16 04:18:33;;;;;;;;;19.33;19.33;;;;;19.27;53.32;101421.25;4979316;28;45233;-68
2023/06/16 04:20:58;;;;;;;;;18.67;17.67;;;;;19.25;52.60;101420.38;4978251;28;45369;-68
2023/06/16 04:23:24;;;;;;;;;17.33;17.33;;;;;19.19;53.56;101413.25;4971906;28;45492;-68
2023/06/16 04:25:49;;;;;;;;;20.33;18.67;;;;;19.27;53.54;101430.22;4978241;28;45542;-68
2023/06/16 04:28:15;;;;;;;;;22.33;21.67;;;;;19.27;52.61;101424.84;4964050;28;45415;-68
2023/06/16 04:30:42;;;;;;;;;23.00;22.33;;;;;19.25;53.20;101428.44;4972333;28;45383;-68
2023/06/16 04:33:07;;;;;;;;;20.00;20.00;;;;;19.20;53.38;101421.28;4966047;28;45515;-68
2023/06/16 04:35:33;;;;;;;;;20.00;17.33;;;;;19.27;53.10;101427.53;4972589;28;45243;-68
2023/06/16 04:37:59;;;;;;;;;19.00;18.00;;;;;19.28;53.58;101431.09;4968557;28;46245;-68
2023/06/16 04:40:25;;;;;;;;;21.00;16.67;;;;;19.18;53.68;101420.38;4972258;28;45231;-68
2023/06/16 04:42:51;;;;;;;;;24.67;23.00;;;;;19.24;52.66;101424.88;4972687;28;45187;-70
2023/06/16 04:45:17;;;;;;;;;16.33;15.00;;;;;19.28;53.66;101429.31;4972502;28;45226;-68
2023/06/16 04:47:42;;;;;;;;;24.00;24.00;;;;;19.22;53.90;101419.50;4973067;28;46144;-68
2023/06/16 04:50:09;;;;;;;;;20.00;20.00;;;;;19.28;53.99;101432.00;4972604;28;45426;-68
2023/06/16 04:52:36;;;;;;;;;20.00;16.00;;;;;19.28;53.97;101423.94;4973338;28;45422;-68
2023/06/16 04:55:02;;;;;;;;;24.33;23.33;;;;;19.29;53.40;101428.41;4973307;28;45436;-68
2023/06/16 04:57:27;;;;;;;;;21.00;21.00;;;;;19.30;53.54;101432.00;4972678;28;46129;-68
2023/06/16 04:59:53;;;;;;;;;19.33;19.00;;;;;19.23;54.32;101413.22;4977909;28;45412;-68
2023/06/16 05:02:18;;;;;;;;;23.00;20.33;;;;;19.34;54.06;101426.63;4975321;28;45399;-68
2023/06/16 05:04:43;;;;;;;;;23.67;21.67;;;;;19.32;53.59;101414.09;4981499;28;45245;-68
2023/06/16 05:07:10;;;;;;;;;18.67;17.33;;;;;19.39;53.94;101421.25;4977604;28;45283;-69
2023/06/16 05:09:36;;;;;;;;;20.33;17.67;;;;;19.33;54.02;101414.13;4978491;28;45420;-69
2023/06/16 05:12:02;;;;;;;;;18.67;17.67;;;;;19.45;53.82;101423.91;4975916;28;45493;-69
2023/06/16 05:14:27;;;;;;;;;19.33;18.00;;;;;19.42;54.09;101413.19;4977830;28;45499;-69
2023/06/16 05:16:52;;;;;;;;;20.00;20.00;;;;;19.49;53.87;101420.31;4975586;28;48770;-69
2023/06/16 05:19:18;;;;;;;;;21.67;20.00;;;;;19.51;53.84;101420.31;4972968;28;45297;-70
2023/06/16 05:21:43;;;;;;;;;27.33;23.33;;;;;19.49;53.67;101408.69;4980887;28;46038;-70
2023/06/16 05:24:08;;;;;;;;;21.00;19.00;;;;;19.51;53.85;101415.84;4975258;28;45305;-70
2023/06/16 05:26:34;;;;;;;;;17.00;16.67;;;;;19.54;54.07;101410.47;4980284;28;45138;-70
2023/06/16 05:28:59;;;;;;;;;21.67;21.33;;;;;19.45;53.99;101395.31;4975768;28;45375;-70
2023/06/16 05:31:25;;;;;;;;;23.00;22.00;;;;;19.40;53.74;101383.69;4979283;28;45388;-70
2023/06/16 05:33:50;;;;;;;;;23.00;22.00;;;;;19.62;53.60;101413.16;4979322;28;45614;-71
2023/06/16 05:36:15;;;;;;;;;20.00;18.00;;;;;19.63;54.15;101412.22;4979728;28;45831;-70
2023/06/16 05:38:41;;;;;;;;;22.67;22.00;;;;;19.68;54.28;101419.41;4982231;28;45347;-70
2023/06/16 05:41:06;;;;;;;;;20.33;20.00;;;;;19.72;54.33;101419.38;4980400;28;45364;-70
2023/06/16 05:43:31;;;;;;;;;20.33;20.33;;;;;19.76;54.55;101423.88;4975772;28;45547;-68
2023/06/16 05:45:57;;;;;;;;;25.67;23.33;;;;;19.78;53.88;101416.72;4980240;28;49339;-69
2023/06/16 05:48:22;;;;;;;;;25.33;21.00;;;;;19.79;53.90;101418.47;4977183;28;45341;-68
2023/06/16 05:50:47;;;;;;;;;19.33;18.67;;;;;19.74;53.26;101401.50;4989615;28;45473;-69
2023/06/16 05:53:13;;;;;;;;;20.67;16.00;;;;;19.85;54.20;101419.34;4979584;28;45314;-69
2023/06/16 05:55:38;;;;;;;;;25.67;24.00;;;;;19.87;54.35;101413.97;4981806;28;46264;-69
2023/06/16 05:58:04;;;;;;;;;23.00;22.00;;;;;19.93;54.03;101411.25;4979662;28;45345;-68
2023/06/16 06:00:29;;;;;;;;;21.67;20.33;;;;;19.92;53.71;101404.13;4981029;28;45321;-68
2023/06/16 06:02:54;;;;;;;;;21.00;19.67;;;;;20.02;53.47;101413.91;4975255;28;55234;-68
2023/06/16 06:05:19;;;;;;;;;24.67;24.33;;;;;20.12;53.25;101410.28;4980040;28;46959;-68
2023/06/16 06:07:45;;;;;;;;;25.33;22.33;;;;;20.24;52.91;101416.47;4990130;28;45330;-68
2023/06/16 06:10:10;;;;;;;;;21.00;21.00;;;;;20.33;52.61;101422.72;4977810;28;45522;-68
2023/06/16 06:12:37;;;;;;;;;22.67;22.00;;;;;20.42;52.90;101420.88;4973550;28;45614;-67
2023/06/16 06:15:03;;;;;;;;;24.33;23.33;;;;;20.51;51.94;101419.00;4980524;28;45453;-69
2023/06/16 06:17:28;;;;;;;;;24.33;22.00;;;;;20.61;51.46;101418.97;4978704;28;45307;-69
2023/06/16 06:19:53;;;;;;;;;24.67;24.67;;;;;20.76;52.16;101424.22;4979528;28;45173;-69
2023/06/16 06:22:19;;;;;;;;;24.00;22.67;;;;;20.88;51.66;101420.56;4979650;28;45265;-69
2023/06/16 06:24:44;;;;;;;;;24.67;22.33;;;;;20.99;51.71;101426.72;4981101;28;45879;-68
2023/06/16 06:27:10;;;;;;;;;20.33;20.00;;;;;21.09;50.74;101424.84;4976583;28;45426;-68
2023/06/16 06:29:36;;;;;;;;;23.33;19.67;;;;;21.30;49.49;101427.31;4981382;28;45318;-68
2023/06/16 06:32:07;;;;;;;;;25.33;21.33;;;;;21.54;48.64;101430.72;4976014;28;45578;-68
2023/06/16 06:34:34;;;;;;;;;21.33;21.33;;;;;21.88;47.88;101436.59;4979925;28;46207;-68
2023/06/16 06:36:59;;;;;;;;;22.67;20.00;;;;;22.14;47.56;101420.09;4973752;28;45410;-70
2023/06/16 06:39:25;;;;;;;;;21.33;19.00;;;;;22.50;46.38;101431.31;4979130;28;45400;-69
2023/06/16 06:41:50;;;;;;;;;22.00;20.67;;;;;22.86;44.89;101439.72;4976918;28;49465;-68
2023/06/16 06:44:15;;;;;;;;;27.67;23.33;;;;;23.18;44.91;101433.81;4977620;28;45294;-68
2023/06/16 06:46:41;;;;;;;;;23.33;19.00;;;;;23.51;44.57;101439.50;4975029;28;45272;-69
2023/06/16 06:49:06;;;;;;;;;23.00;23.00;;;;;23.79;42.24;101440.78;4972169;28;45436;-69
2023/06/16 06:51:31;;;;;;;;;23.33;20.67;;;;;24.10;42.06;101446.41;4976512;28;45471;-69
2023/06/16 06:53:57;;;;;;;;;21.67;20.33;;;;;24.36;43.06;101436.84;4972470;28;48622;-69
2023/06/16 06:56:22;;;;;;;;;22.67;20.00;;;;;24.76;41.50;101447.66;4977151;28;45448;-69
2023/06/16 06:58:48;;;;;;;;;18.00;17.00;;;;;25.06;41.97;101446.94;4973882;28;45385;-70
2023/06/16 07:01:13;;;;;;;;;23.00;19.33;;;;;25.48;39.64;101449.47;4978836;28;45507;-70
2023/06/16 07:03:39;;;;;;;;;16.33;15.33;;;;;25.83;40.71;101468.38;4966116;28;45558;-70
2023/06/16 07:06:04;;;;;;;;;18.67;17.67;;;;;26.01;37.99;101442.56;4984621;28;45505;-69
2023/06/16 07:08:29;;;;;;;;;15.67;15.33;;;;;26.30;37.57;101459.78;4967571;28;45281;-69
2023/06/16 07:10:55;;;;;;;;;16.67;16.67;;;;;26.55;36.40;101462.63;4978832;28;45509;-67
2023/06/16 07:13:20;;;;;;;;;20.67;18.00;;;;;26.76;37.66;101448.38;4978062;28;45201;-70
2023/06/16 07:15:46;;;;;;;;;19.33;18.33;;;;;26.93;35.08;101446.94;4980351;28;45310;-69
2023/06/16 07:18:11;;;;;;;;;19.67;19.67;;;;;27.19;34.93;101451.50;4979058;28;45426;-69
2023/06/16 07:20:36;;;;;;;;;19.00;18.00;;;;;27.39;36.81;101450.81;4980389;28;45475;-71
2023/06/16 07:23:02;;;;;;;;;22.00;19.67;;;;;27.59;36.05;101439.25;4977542;28;45238;-70
2023/06/16 07:25:28;;;;;;;;;18.00;16.00;;;;;27.95;34.38;101456.06;4980285;28;45346;-71
2023/06/16 07:27:54;;;;;;;;;19.00;18.00;;;;;28.32;34.56;101465.50;4971795;28;45167;-71
2023/06/16 07:30:19;;;;;;;;;18.50;15.25;;;;;28.50;35.14;101467.53;4980410;28;45580;-71
2023/06/16 07:32:45;;;;;;;;;23.33;18.00;;;;;28.65;34.63;101449.72;4978508;28;45609;-71
2023/06/16 07:35:11;;;;;;;;;20.67;18.67;;;;;28.90;34.25;101459.56;4970947;28;45412;-72
2023/06/16 07:37:36;;;;;;;;;21.75;17.25;;;;;29.13;33.33;101462.25;4978860;28;45499;-71
2023/06/16 07:40:03;;;;;;;;;21.00;18.00;;;;;29.44;31.87;101464.53;4984198;28;45778;-71
2023/06/16 07:42:28;;;;;;;;;13.75;13.75;;;;;29.71;33.97;101453.38;4968282;28;46085;-71
2023/06/16 07:44:54;;;;;;;;;16.00;16.00;;;;;29.98;31.63;101469.44;4973500;28;45314;-71
2023/06/16 07:47:19;;;;;;;;;16.00;14.75;;;;;30.17;31.00;101466.75;4972272;28;45222;-71
2023/06/16 07:49:45;;;;;;;;;19.50;18.50;;;;;30.29;30.14;101461.59;4978646;28;46069;-71
2023/06/16 07:52:11;;;;;;;;;19.00;16.75;;;;;30.39;32.74;101447.50;4977054;28;46415;-72
2023/06/16 07:54:37;;;;;;;;;22.50;18.00;;;;;30.72;31.06;101464.09;4975639;28;45453;-71
2023/06/16 07:57:02;;;;;;;;;20.25;19.00;;;;;30.87;29.31;101465.22;4972656;28;45449;-71
2023/06/16 07:59:28;;;;;;;;;19.75;18.00;;;;;31.12;28.75;101464.88;4974498;28;45407;-71
2023/06/16 08:01:53;;;;;;;;;17.75;16.50;;;;;31.32;28.55;101455.66;4975967;28;45370;-71
2023/06/16 08:04:18;;;;;;;;;19.25;17.50;;;;;31.48;30.65;101447.53;4973794;28;45455;-71
2023/06/16 08:06:43;;;;;;;;;17.50;17.50;;;;;31.76;30.35;101463.34;4974058;28;45399;-71
2023/06/16 08:09:10;;;;;;;;;22.75;19.75;;;;;31.93;29.35;101466.09;4972715;28;45556;-71
2023/06/16 08:11:35;;;;;;;;;21.00;19.50;;;;;32.05;28.53;101454.47;4975384;28;45530;-71
2023/06/16 08:14:01;;;;;;;;;19.00;17.50;;;;;32.23;28.61;101458.03;4980401;28;45659;-71
2023/06/16 08:16:26;;;;;;;;;17.00;16.50;;;;;32.44;27.56;101455.94;4972502;28;45348;-71
2023/06/16 08:18:55;;;;;;;;;14.50;14.00;;;;;32.63;28.68;101450.34;4968015;28;48244;-71
2023/06/16 08:21:20;;;;;;;;;18.00;16.75;;;;;32.65;26.43;101433.78;4975243;28;46316;-71
2023/06/16 08:23:46;;;;;;;;;16.75;16.75;;;;;32.95;29.30;101444.81;4960203;28;45276;-70
2023/06/16 08:26:11;;;;;;;;;17.50;17.50;;;;;33.13;26.36;101459.28;4971490;28;45356;-70
2023/06/16 08:28:40;;;;;;;;;19.00;15.00;;;;;33.33;26.59;101458.06;4959752;28;45385;-71
2023/06/16 08:31:06;;;;;;;;;16.00;16.00;;;;;33.48;25.61;101446.19;4970540;28;47435;-70
2023/06/16 08:33:32;;;;;;;;;17.75;15.00;;;;;33.66;27.65;101444.19;4966519;28;45876;-70
2023/06/16 08:35:57;;;;;;;;;15.50;13.25;;;;;33.84;26.47;101444.91;4973535;28;45392;-70
2023/06/16 08:38:23;;;;;;;;;19.50;16.50;;;;;33.87;26.89;101441.97;4967260;28;45451;-70
2023/06/16 08:40:48;;;;;;;;;16.00;15.00;;;;;34.01;24.50;101441.09;4973050;28;46370;-70
2023/06/16 08:43:14;;;;;;;;;17.75;15.00;;;;;34.18;23.78;101435.41;4969501;28;45582;-70
2023/06/16 08:45:40;;;;;;;;;19.60;16.60;;;;;34.47;25.51;101432.63;4974056;28;45336;-70
2023/06/16 08:48:06;;;;;;;;;14.75;13.75;;;;;34.55;24.46;101419.25;4969596;28;45429;-71
2023/06/16 08:50:32;;;;;;;;;18.50;15.25;;;;;34.80;24.03;101431.38;4973975;28;45991;-71
2023/06/16 08:53:00;;;;;;;;;16.40;14.20;;;;;34.91;23.51;101428.78;4970468;28;45407;-72
2023/06/16 08:55:28;;;;;;;;;2.20;2.20;;;;;35.17;23.03;101425.13;4974135;28;45589;-71
2023/06/16 08:57:55;;;;;;;;;14.20;13.40;;;;;35.31;21.44;101424.19;4968290;28;45728;-70
2023/06/16 09:00:21;;;;;;;;;12.40;12.40;;;;;35.49;24.99;101422.03;4973053;28;46786;-70
2023/06/16 09:02:55;;;;;;;;;14.80;13.00;;;;;35.60;22.48;101427.66;4976260;28;45397;-71
2023/06/16 09:05:21;;;;;;;;;11.60;10.20;;;;;35.75;20.46;101419.31;4983429;28;45315;-70
2023/06/16 09:07:47;;;;;;;;;13.50;13.50;;;;;35.94;22.42;101427.13;4967925;28;45396;-71
2023/06/16 09:10:12;;;;;;;;;13.25;12.25;;;;;36.12;21.80;101431.28;4977508;28;46094;-71
2023/06/16 09:12:38;;;;;;;;;13.75;12.25;;;;;36.36;20.56;101431.34;4969948;28;45427;-71
2023/06/16 09:15:10;;;;;;;;;12.25;12.25;;;;;36.50;23.22;101427.56;4977323;28;45337;-73
2023/06/16 09:17:37;;;;;;;;;10.60;8.00;;;;;36.63;22.82;101430.28;4970576;28;45422;-69
2023/06/16 09:20:06;;;;;;;;;12.20;11.40;;;;;36.74;19.35;101425.72;4977082;28;45342;-70
2023/06/16 09:22:32;;;;;;;;;10.80;10.00;;;;;36.81;18.65;101428.91;4971201;28;45330;-71
2023/06/16 09:25:09;;;;;;;;;13.60;11.20;;;;;36.93;20.89;101410.53;4974145;28;45384;-72
2023/06/16 09:27:50;;;;;;;;;12.80;10.80;;;;;37.01;21.19;101430.16;4962650;28;45410;-71
2023/06/16 09:30:20;;;;;;;;;15.40;10.80;;;;;37.21;21.31;101416.69;4969463;28;46428;-72
2023/06/16 09:32:51;;;;;;;;;11.80;9.80;;;;;37.43;19.38;101419.50;4968481;28;45439;-73
2023/06/16 09:35:26;;;;;;;;;11.80;9.20;;;;;37.53;20.82;101425.19;4970581;28;45310;-74
2023/06/16 09:37:53;;;;;;;;;11.40;11.40;;;;;37.52;18.42;101412.41;4970832;28;45305;-74
2023/06/16 09:40:20;;;;;;;;;10.60;10.60;;;;;37.51;19.68;101408.78;4971289;28;46003;-74
2023/06/16 09:42:47;;;;;;;;;11.20;9.60;;;;;37.65;18.39;101415.06;4971797;28;45361;-74
2023/06/16 09:45:14;;;;;;;;;11.60;9.60;;;;;37.91;20.58;101424.00;4972383;28;45388;-72
2023/06/16 09:47:47;;;;;;;;;12.20;11.80;;;;;37.90;18.82;101412.09;4972495;28;45562;-72
2023/06/16 09:50:14;;;;;;;;;13.20;12.20;;;;;37.98;20.16;101417.88;4973024;28;45225;-73
2023/06/16 09:52:44;;;;;;;;;11.00;9.80;;;;;37.97;17.54;101412.47;4972434;28;45486;-73
2023/06/16 09:55:11;;;;;;;;;9.00;9.00;;;;;38.04;18.32;101406.34;4975848;28;45401;-71
2023/06/16 09:57:42;;;;;;;;;11.00;10.00;;;;;38.14;17.90;101416.63;4971924;28;45423;-71
2023/06/16 10:00:13;;;;;;;;;11.40;10.60;;;;;38.17;18.46;101413.59;4973682;28;45904;-70
2023/06/16 10:02:47;;;;;;;;;10.60;10.00;;;;;38.21;16.95;101409.59;4973725;28;45410;-70
2023/06/16 10:05:18;;;;;;;;;12.20;11.60;;;;;38.35;16.83;101412.06;4982641;28;45514;-71
2023/06/16 10:07:50;;;;;;;;;9.80;8.60;;;;;38.44;17.52;101418.75;4970916;28;45577;-73
2023/06/16 10:10:19;;;;;;;;;10.60;7.80;;;;;38.54;17.82;101413.31;4979766;28;45488;-71
2023/06/16 10:12:46;;;;;;;;;11.40;10.40;;;;;38.61;18.71;101414.56;4971233;28;45448;-72
2023/06/16 10:15:18;;;;;;;;;12.40;12.40;;;;;38.66;17.83;101410.41;4980787;28;45288;-72
2023/06/16 10:17:46;;;;;;;;;12.00;10.80;;;;;38.67;18.37;101401.09;4972484;28;45461;-72
2023/06/16 10:20:15;;;;;;;;;10.60;10.60;;;;;38.73;16.98;101407.97;4979571;28;46403;-72
2023/06/16 10:22:41;;;;;;;;;11.20;10.80;;;;;38.80;16.93;101405.59;4972779;28;45444;-72
2023/06/16 10:25:07;;;;;;;;;11.50;10.25;;;;;38.89;16.30;101408.44;4993495;28;45297;-71
2023/06/16 10:27:33;;;;;;;;;12.40;11.60;;;;;38.98;16.59;101408.66;4965062;28;45591;-72
2023/06/16 10:30:01;;;;;;;;;10.40;9.00;;;;;39.15;17.03;101400.66;4970698;28;46191;-72
2023/06/16 10:32:26;;;;;;;;;11.20;10.60;;;;;39.37;16.17;101396.03;4971838;28;45392;-73
2023/06/16 10:34:56;;;;;;;;;13.00;13.00;;;;;39.35;16.14;101382.38;4981990;28;45485;-72
2023/06/16 10:37:23;;;;;;;;;11.20;11.00;;;;;39.41;15.44;101400.31;4974966;28;45420;-72
2023/06/16 10:39:49;;;;;;;;;12.80;11.60;;;;;39.38;17.25;101390.38;4981048;28;46270;-73
2023/06/16 10:42:15;;;;;;;;;12.50;12.25;;;;;39.33;15.62;101389.91;4974858;28;45351;-73
2023/06/16 10:44:42;;;;;;;;;12.20;10.80;;;;;39.41;16.87;101394.78;4980990;28;45295;-73
2023/06/16 10:47:10;;;;;;;;;12.00;12.00;;;;;39.37;17.04;101393.28;4976946;28;45379;-72
2023/06/16 10:50:02;;;;;;;;;12.00;11.00;;;;;39.44;16.05;101385.28;4996317;28;47052;-72
2023/06/16 10:52:42;;;;;;;;;12.20;10.20;;;;;39.38;16.43;101384.84;4973924;28;45557;-71
2023/06/16 10:55:33;;;;;;;;;10.60;10.60;;;;;39.61;15.76;101396.63;4980881;28;45453;-71
2023/06/16 10:58:18;;;;;;;;;11.60;10.20;;;;;39.61;15.47;101384.69;4967894;28;46275;-71
2023/06/16 11:01:05;;;;;;;;;11.40;11.40;;;;;39.75;16.58;101392.66;4979297;28;47226;-71
2023/06/16 11:03:34;;;;;;;;;12.80;12.00;;;;;39.44;15.45;101388.97;4976854;28;45305;-71
2023/06/16 11:06:00;;;;;;;;;10.20;10.20;;;;;39.39;16.19;101381.06;4982703;28;45289;-71
2023/06/16 11:08:28;;;;;;;;;14.00;14.00;;;;;39.56;16.80;101379.56;4977621;28;45598;-71